Time;durP1;ratioP1;P1;durP2;ratioP2;P2;SDS_P1;SDS_P2;PMS_P1;PMS_P2;Temp;Humidity;BMP_temperature;BMP_pressure;BME280_temperature;BME280_humidity;BME280_pressure;Samples;Min_cycle;Max_cycle;Signal;HPM_P1;HPM_P2
2023/02/13 00:02:19;;;;;;;131.32;55.13;;;;;;;0.80;100.00;99356.59;5070640;28;20024;-78
2023/02/13 00:04:45;;;;;;;123.90;52.53;;;;;;;0.77;100.00;99360.06;5069497;28;20515;-78
2023/02/13 00:07:11;;;;;;;133.82;53.08;;;;;;;0.79;100.00;99365.34;5067321;28;20032;-78
2023/02/13 00:09:37;;;;;;;118.15;48.28;;;;;;;0.71;100.00;99354.75;5053460;28;20107;-78
2023/02/13 00:12:03;;;;;;;114.95;48.78;;;;;;;0.72;100.00;99374.97;5054907;28;20024;-78
2023/02/13 00:14:29;;;;;;;119.88;49.30;;;;;;;0.57;100.00;99358.19;5062341;28;20097;-78
2023/02/13 00:16:54;;;;;;;122.28;49.05;;;;;;;0.55;100.00;99363.47;5076179;28;20484;-78
2023/02/13 00:19:20;;;;;;;116.78;48.42;;;;;;;0.50;100.00;99378.31;5070293;28;20044;-78
2023/02/13 00:21:45;;;;;;;124.30;49.08;;;;;;;0.55;100.00;99374.00;5073492;28;20139;-78
2023/02/13 00:24:11;;;;;;;121.97;50.88;;;;;;;0.58;100.00;99375.75;5073256;28;20032;-78
2023/02/13 00:26:38;;;;;;;126.88;50.67;;;;;;;0.57;100.00;99377.50;5075384;28;20040;-79
2023/02/13 00:29:04;;;;;;;125.05;51.10;;;;;;;0.50;100.00;99379.22;5053301;28;20025;-78
2023/02/13 00:31:30;;;;;;;129.63;53.92;;;;;;;0.48;100.00;99383.59;5066542;28;20035;-78
2023/02/13 00:33:55;;;;;;;153.38;55.58;;;;;;;0.48;100.00;99388.84;5067328;28;20078;-78
2023/02/13 00:36:21;;;;;;;133.45;53.88;;;;;;;0.44;100.00;99367.75;5053151;28;20102;-78
2023/02/13 00:38:47;;;;;;;130.40;52.55;;;;;;;0.59;100.00;99393.28;5053201;28;20410;-76
2023/02/13 00:41:15;;;;;;;132.73;55.20;;;;;;;0.60;100.00;99381.91;5078089;28;20024;-77
2023/02/13 00:43:41;;;;;;;143.38;55.03;;;;;;;0.63;100.00;99387.19;5075260;28;20024;-77
2023/02/13 00:46:06;;;;;;;142.45;57.22;;;;;;;0.55;100.00;99388.00;5068152;28;20050;-77
2023/02/13 00:48:33;;;;;;;149.00;56.47;;;;;;;0.62;100.00;99388.06;5088117;28;20077;-78
2023/02/13 00:50:58;;;;;;;144.00;57.30;;;;;;;0.50;100.00;99368.69;5069583;28;20024;-77
2023/02/13 00:53:25;;;;;;;142.48;58.10;;;;;;;0.65;100.00;99388.09;5070443;28;20035;-77
2023/02/13 00:55:51;;;;;;;145.90;56.83;;;;;;;0.59;100.00;99380.13;5090097;28;20125;-78
2023/02/13 00:58:17;;;;;;;148.95;56.38;;;;;;;0.64;100.00;99387.22;5072966;28;20507;-77
2023/02/13 01:00:43;;;;;;;144.95;55.20;;;;;;;0.66;100.00;99395.09;5059010;28;20467;-78
2023/02/13 01:03:10;;;;;;;167.40;63.25;;;;;;;0.62;100.00;99377.53;5059726;28;20125;-77
2023/02/13 01:05:35;;;;;;;170.45;63.60;;;;;;;0.67;100.00;99386.34;5058812;28;20024;-78
2023/02/13 01:08:01;;;;;;;151.43;61.42;;;;;;;0.61;100.00;99379.28;5084296;28;20093;-77
2023/02/13 01:10:26;;;;;;;154.57;60.58;;;;;;;0.71;100.00;99398.69;5062935;28;20553;-77
2023/02/13 01:12:52;;;;;;;153.27;58.00;;;;;;;0.66;100.00;99388.09;5072739;28;20089;-77
2023/02/13 01:15:19;;;;;;;155.15;60.45;;;;;;;0.71;100.00;99393.41;5065135;28;20040;-79
2023/02/13 01:17:44;;;;;;;148.65;58.78;;;;;;;0.73;100.00;99403.06;5079132;28;20508;-78
2023/02/13 01:20:11;;;;;;;153.20;60.20;;;;;;;0.77;100.00;99398.72;5056202;28;20024;-78
2023/02/13 01:22:37;;;;;;;169.50;63.83;;;;;;;0.71;100.00;99402.16;5091469;28;20024;-78
2023/02/13 01:25:03;;;;;;;127.65;52.85;;;;;;;0.73;100.00;99412.72;5062686;28;20067;-77
2023/02/13 01:27:29;;;;;;;149.30;59.33;;;;;;;0.77;100.00;99398.72;5064740;28;20071;-78
2023/02/13 01:29:54;;;;;;;132.50;54.28;;;;;;;0.70;100.00;99386.38;5063616;28;20086;-78
2023/02/13 01:32:20;;;;;;;115.82;48.75;;;;;;;0.71;100.00;99386.38;5072740;28;20028;-77
2023/02/13 01:34:46;;;;;;;120.28;50.60;;;;;;;0.79;100.00;99386.44;5055854;28;20123;-78
2023/02/13 01:37:11;;;;;;;116.90;49.15;;;;;;;0.75;100.00;99388.16;5064264;28;20111;-78
2023/02/13 01:39:37;;;;;;;121.07;49.85;;;;;;;0.80;100.00;99396.97;5073592;28;20016;-79
2023/02/13 01:42:03;;;;;;;123.57;49.50;;;;;;;0.66;100.00;99377.56;5071420;28;20037;-77
2023/02/13 01:44:53;;;;;;;118.72;46.83;;;;;;;0.73;100.00;99381.13;5064047;28;20056;-77
2023/02/13 01:47:36;;;;;;;115.80;48.33;;;;;;;0.85;100.00;99389.09;5049444;28;20028;-77
2023/02/13 01:50:21;;;;;;;112.13;46.50;;;;;;;0.79;100.00;99375.91;5088193;28;20474;-77
2023/02/13 01:53:00;;;;;;;108.00;46.05;;;;;;;0.83;100.00;99382.94;5066196;28;20511;-78
2023/02/13 01:55:26;;;;;;;123.47;47.33;;;;;;;0.78;100.00;99384.66;5076088;28;20017;-77
2023/02/13 01:58:04;;;;;;;107.40;44.85;;;;;;;0.79;100.00;99381.16;5081164;28;20029;-78
2023/02/13 02:00:30;;;;;;;98.07;42.55;;;;;;;0.77;100.00;99393.44;5063498;28;20475;-78
2023/02/13 02:03:12;;;;;;;99.93;41.63;;;;;;;0.74;100.00;99394.28;5066765;28;20034;-77
2023/02/13 02:05:38;;;;;;;91.72;38.90;;;;;;;0.69;100.00;99388.13;5074856;28;20141;-77
2023/02/13 02:08:07;;;;;;;89.38;38.42;;;;;;;0.71;100.00;99394.25;5076326;28;20032;-77
2023/02/13 02:10:32;;;;;;;89.72;37.92;;;;;;;0.67;100.00;99387.25;5067400;28;20029;-78
2023/02/13 02:13:12;;;;;;;87.03;37.05;;;;;;;0.67;100.00;99394.25;5066524;28;20100;-78
2023/02/13 02:15:39;;;;;;;84.63;36.58;;;;;;;0.68;100.00;99393.38;5084300;28;20065;-77
2023/02/13 02:18:11;;;;;;;83.55;36.05;;;;;;;0.60;100.00;99385.44;5092209;28;20193;-77
2023/02/13 02:20:58;;;;;;;89.65;35.45;;;;;;;0.66;100.00;99400.38;5075392;28;20028;-76
2023/02/13 02:23:48;;;;;;;79.22;31.70;;;;;;;0.65;100.00;99398.63;5051858;28;20443;-77
2023/02/13 02:26:32;;;;;;;75.80;32.10;;;;;;;0.66;100.00;99395.09;5051789;28;20036;-78
2023/02/13 02:29:25;;;;;;;76.63;32.10;;;;;;;0.59;100.00;99390.66;5088805;28;20379;-78
2023/02/13 02:31:59;;;;;;;72.50;28.50;;;;;;;0.59;100.00;99391.56;5074965;28;20529;-78
2023/02/13 02:34:36;;;;;;;74.43;30.00;;;;;;;0.59;100.00;99395.94;5077062;28;20035;-77
2023/02/13 02:37:23;;;;;;;71.35;29.27;;;;;;;0.52;100.00;99393.25;5054865;28;20086;-77
2023/02/13 02:39:54;;;;;;;72.28;29.33;;;;;;;0.49;100.00;99392.38;5055748;28;20028;-77
2023/02/13 02:42:23;;;;;;;67.45;28.92;;;;;;;0.53;100.00;99402.91;5092831;28;20088;-77
2023/02/13 02:45:01;;;;;;;81.65;33.42;;;;;;;0.50;100.00;99394.13;5083324;28;20032;-78
2023/02/13 02:51:01;;;;;;;92.15;36.95;;;;;;;0.43;100.00;99387.91;5069120;28;20077;-77
2023/02/13 02:53:45;;;;;;;88.93;33.42;;;;;;;0.52;100.00;99393.25;5081937;28;20036;-78
2023/02/13 02:56:36;;;;;;;92.53;33.95;;;;;;;0.47;100.00;99388.81;5059797;28;20020;-77
2023/02/13 03:07:34;;;;;;;88.32;34.83;;;;;;;0.11;100.00;99378.00;5077951;28;20038;-77
2023/02/13 03:13:50;;;;;;;82.35;33.95;;;;;;;-0.12;100.00;99383.94;5082971;28;20031;-78
2023/02/13 03:22:18;;;;;;;127.25;49.33;;;;;;;-0.49;100.00;99394.91;5028013;28;20041;-77
2023/02/13 03:25:02;;;;;;;121.32;46.58;;;;;;;-0.48;100.00;99401.94;5067257;28;20040;-76
2023/02/13 03:30:30;;;;;;;86.88;36.25;;;;;;;-0.74;100.00;99414.75;5059232;28;20461;-78
2023/02/13 03:33:13;;;;;;;95.80;38.50;;;;;;;-0.81;100.00;99410.31;5081915;28;20028;-78
2023/02/13 03:38:56;;;;;;;102.47;37.90;;;;;;;-0.88;100.00;99415.44;5092219;28;20089;-78
2023/02/13 03:41:28;;;;;;;140.43;51.47;;;;;;;-0.99;100.00;99411.81;5033585;28;20029;-78
2023/02/13 03:44:44;;;;;;;119.28;45.80;;;;;;;-0.99;100.00;99412.69;5050356;28;20119;-78
2023/02/13 03:47:10;;;;;;;110.25;42.88;;;;;;;-1.05;100.00;99415.25;5034118;28;20041;-77
2023/02/13 03:50:06;;;;;;;138.93;49.67;;;;;;;-1.09;100.00;99418.69;5050140;28;20454;-78
2023/02/13 03:52:38;;;;;;;159.90;56.72;;;;;;;-1.13;100.00;99424.72;5050387;28;20037;-78
2023/02/13 04:00:53;;;;;;;121.90;40.55;;;;;;;-1.25;100.00;99414.06;5070386;28;20484;-78
2023/02/13 04:03:26;;;;;;;175.25;58.90;;;;;;;-1.26;100.00;99412.31;5053330;28;20072;-78
2023/02/13 04:06:03;;;;;;;177.05;57.83;;;;;;;-1.34;100.00;99413.91;5072864;28;20034;-78
2023/02/13 04:08:29;;;;;;;143.68;49.85;;;;;;;-1.38;100.00;99412.09;5073673;28;20067;-78
2023/02/13 04:11:24;;;;;;;128.68;46.70;;;;;;;-1.38;100.00;99418.25;5057119;28;20060;-78
2023/02/13 04:13:56;;;;;;;151.00;47.15;;;;;;;-1.42;100.00;99420.81;5044424;28;20037;-77
2023/02/13 04:16:40;;;;;;;144.30;49.42;;;;;;;-1.42;100.00;99420.81;5060046;28;20024;-78
2023/02/13 04:19:07;;;;;;;152.43;49.15;;;;;;;-1.42;100.00;99432.19;5069860;28;20415;-78
2023/02/13 04:21:33;;;;;;;128.07;48.00;;;;;;;-1.45;100.00;99428.63;5053230;28;20032;-77
2023/02/13 04:23:58;;;;;;;123.30;46.75;;;;;;;-1.38;100.00;99439.22;5054265;28;20028;-79
2023/02/13 04:26:25;;;;;;;137.57;48.60;;;;;;;-1.53;100.00;99417.13;5082697;28;20053;-79
2023/02/13 04:28:50;;;;;;;120.18;46.78;;;;;;;-1.58;100.00;99414.44;5073374;28;20479;-77
2023/02/13 04:31:16;;;;;;;139.38;53.67;;;;;;;-1.57;100.00;99420.56;5069912;28;20034;-77
2023/02/13 04:33:41;;;;;;;136.23;50.72;;;;;;;-1.52;100.00;99437.25;5054292;28;20036;-78
2023/02/13 04:36:07;;;;;;;138.90;46.50;;;;;;;-1.68;100.00;99418.66;5061504;28;20028;-77
2023/02/13 04:38:33;;;;;;;159.45;50.58;;;;;;;-1.68;100.00;99421.28;5090030;28;20024;-77
2023/02/13 04:40:58;;;;;;;137.63;45.47;;;;;;;-1.68;100.00;99423.00;5071258;28;20078;-80
2023/02/13 04:43:24;;;;;;;131.80;49.78;;;;;;;-1.70;100.00;99424.72;5072451;28;20542;-78
2023/02/13 04:45:50;;;;;;;101.95;38.92;;;;;;;-1.66;100.00;99427.41;5087844;28;20016;-78
2023/02/13 04:48:15;;;;;;;115.78;41.50;;;;;;;-1.68;100.00;99423.00;5079714;28;20035;-77
2023/02/13 04:50:41;;;;;;;107.63;41.38;;;;;;;-1.59;100.00;99424.88;5080620;28;20077;-78
2023/02/13 04:53:06;;;;;;;116.78;40.63;;;;;;;-1.68;100.00;99421.28;5083271;28;20145;-77
2023/02/13 04:55:32;;;;;;;141.82;45.33;;;;;;;-1.65;100.00;99425.69;5083950;28;20063;-76
2023/02/13 04:57:58;;;;;;;144.35;46.67;;;;;;;-1.65;100.00;99421.31;5067731;28;20089;-76
2023/02/13 05:00:25;;;;;;;129.35;47.95;;;;;;;-1.63;100.00;99430.97;5072891;28;20035;-78
2023/02/13 05:02:51;;;;;;;126.78;48.00;;;;;;;-1.67;100.00;99430.91;5069817;28;20020;-78
2023/02/13 05:05:17;;;;;;;138.45;48.28;;;;;;;-1.72;100.00;99435.19;5085763;28;20476;-82
2023/02/13 05:07:42;;;;;;;114.90;45.80;;;;;;;-1.83;100.00;99423.63;5056839;28;20024;-77
2023/02/13 05:10:12;;;;;;;107.28;39.85;;;;;;;-1.80;100.00;99443.78;5063761;28;20035;-79
2023/02/13 05:12:37;;;;;;;86.55;37.13;;;;;;;-1.87;100.00;99440.16;5055538;28;20028;-79
2023/02/13 05:15:04;;;;;;;83.65;31.67;;;;;;;-1.91;100.00;99440.09;5070788;28;20024;-79
2023/02/13 05:17:29;;;;;;;77.97;30.58;;;;;;;-1.95;100.00;99444.41;5072983;28;20077;-77
2023/02/13 05:19:55;;;;;;;83.88;31.08;;;;;;;-1.96;100.00;99455.72;5064460;28;20499;-77
2023/02/13 05:25:05;;;;;;;99.70;34.22;;;;;;;-1.98;100.00;99459.19;5078485;28;20127;-79
2023/02/13 05:27:30;;;;;;;197.00;52.30;;;;;;;-2.08;100.00;99452.88;5057873;28;20107;-78
2023/02/13 05:29:56;;;;;;;196.48;59.42;;;;;;;-2.11;100.00;99444.97;5111167;28;20046;-78
2023/02/13 05:32:21;;;;;;;124.30;43.17;;;;;;;-2.15;100.00;99451.00;5084924;28;20063;-79
2023/02/13 05:34:46;;;;;;;174.35;56.97;;;;;;;-2.13;100.00;99459.78;5075619;28;20157;-79
2023/02/13 05:37:12;;;;;;;156.63;55.90;;;;;;;-2.18;100.00;99455.34;5091056;28;20027;-78
2023/02/13 05:39:37;;;;;;;138.73;47.90;;;;;;;-2.12;100.00;99460.69;5078599;28;20403;-78
2023/02/13 05:42:03;;;;;;;139.55;50.92;;;;;;;-2.12;100.00;99460.69;5087078;28;20156;-79
2023/02/13 05:44:29;;;;;;;164.32;57.15;;;;;;;-2.10;100.00;99452.00;5077284;28;20030;-78
2023/02/13 05:46:55;;;;;;;162.55;57.50;;;;;;;-2.02;100.00;99458.25;5090934;28;20046;-78
2023/02/13 05:49:21;;;;;;;131.43;49.10;;;;;;;-2.00;100.00;99469.63;5101620;28;20114;-78
2023/02/13 05:51:47;;;;;;;191.43;68.53;;;;;;;-1.86;100.00;99473.41;5086570;28;20485;-79
2023/02/13 05:54:13;;;;;;;125.40;48.13;;;;;;;-1.83;100.00;99456.84;5080023;28;20558;-79
2023/02/13 05:56:39;;;;;;;103.07;43.17;;;;;;;-1.77;100.00;99455.22;5091756;28;20111;-79
2023/02/13 05:59:04;;;;;;;127.63;49.78;;;;;;;-1.73;100.00;99457.03;5075027;28;20034;-79
2023/02/13 06:01:30;;;;;;;123.78;48.28;;;;;;;-1.57;100.00;99473.94;5083633;28;20494;-79
2023/02/13 06:03:55;;;;;;;140.27;48.00;;;;;;;-1.33;100.00;99478.69;5071017;28;20028;-79
2023/02/13 06:06:21;;;;;;;137.02;48.20;;;;;;;-1.32;100.00;99454.19;5074562;28;20085;-78
2023/02/13 06:08:47;;;;;;;156.90;52.72;;;;;;;-1.26;100.00;99455.16;5062206;28;20040;-80
2023/02/13 06:11:12;;;;;;;178.90;62.80;;;;;;;-0.93;100.00;99481.06;5087198;28;20086;-79
2023/02/13 06:13:39;;;;;;;202.75;67.03;;;;;;;-0.82;100.00;99461.06;5092703;28;20031;-79
2023/02/13 06:16:09;;;;;;;230.05;70.35;;;;;;;-0.68;100.00;99456.88;5071862;28;20094;-79
2023/02/13 06:18:34;;;;;;;288.08;97.38;;;;;;;-0.46;100.00;99460.66;5090908;28;20429;-79
2023/02/13 06:21:01;;;;;;;182.70;67.00;;;;;;;0.19;100.00;99464.03;5082859;28;20020;-78
2023/02/13 06:23:27;;;;;;;156.23;59.15;;;;;;;1.58;100.00;99467.69;5083547;28;20395;-78
2023/02/13 06:25:52;;;;;;;176.18;65.65;;;;;;;3.12;100.00;99447.63;5086096;28;20031;-79
2023/02/13 06:28:18;;;;;;;152.50;58.00;;;;;;;4.42;100.00;99386.13;5069531;28;20031;-79
2023/02/13 06:30:43;;;;;;;200.00;77.57;;;;;;;5.39;99.56;99348.00;5093008;28;20467;-80
2023/02/13 06:33:09;;;;;;;185.68;78.22;;;;;;;6.37;86.81;99327.13;5083072;28;20024;-78
2023/02/13 06:35:34;;;;;;;216.13;85.50;;;;;;;7.55;77.61;99308.88;5082551;28;20027;-79
2023/02/13 06:38:00;;;;;;;201.48;82.20;;;;;;;8.47;68.20;99277.41;5089487;28;20047;-78
2023/02/13 06:40:25;;;;;;;202.32;80.85;;;;;;;8.50;63.53;99233.75;5075686;28;20035;-79
2023/02/13 06:42:51;;;;;;;176.80;72.57;;;;;;;8.44;63.08;99224.13;5084901;28;20031;-78
2023/02/13 06:45:16;;;;;;;164.98;71.28;;;;;;;8.92;61.42;99216.56;5088785;28;20537;-79
2023/02/13 06:47:43;;;;;;;139.20;62.17;;;;;;;9.59;59.07;99220.78;5082222;28;20039;-80
2023/02/13 06:50:10;;;;;;;166.48;79.40;;;;;;;9.56;57.32;99188.84;5065466;28;20043;-79
2023/02/13 06:52:36;;;;;;;174.60;85.00;;;;;;;8.65;60.05;99169.31;5065445;28;20037;-78
2023/02/13 06:55:01;;;;;;;121.15;55.83;;;;;;;8.19;61.75;99162.56;5057158;28;20250;-79
2023/02/13 06:57:31;;;;;;;106.63;47.85;;;;;;;8.33;62.63;99167.56;5087928;28;20103;-79
2023/02/13 06:59:57;;;;;;;97.75;44.53;;;;;;;8.49;62.69;99165.38;5085555;28;20398;-79
2023/02/13 07:02:23;;;;;;;96.43;43.72;;;;;;;8.86;61.61;99163.38;5086587;28;20094;-80
2023/02/13 07:04:48;;;;;;;95.75;43.58;;;;;;;8.85;60.79;99150.97;5073614;28;20544;-80
2023/02/13 07:07:14;;;;;;;86.72;42.08;;;;;;;8.82;61.11;99145.72;5088492;28;20027;-80
2023/02/13 07:09:40;;;;;;;88.75;40.15;;;;;;;9.63;58.87;99173.44;5077254;28;20710;-79
2023/02/13 07:12:06;;;;;;;86.30;41.22;;;;;;;9.90;57.30;99169.91;5084772;28;20024;-79
2023/02/13 07:14:31;;;;;;;87.93;39.13;;;;;;;10.58;55.40;99185.41;5066139;28;20028;-79
2023/02/13 07:16:57;;;;;;;76.65;37.70;;;;;;;10.02;55.11;99172.16;5058790;28;20561;-79
2023/02/13 07:19:22;;;;;;;77.50;36.90;;;;;;;10.26;55.21;99166.00;5079481;28;20044;-80
2023/02/13 07:21:48;;;;;;;78.68;37.65;;;;;;;10.58;53.97;99166.69;5073249;28;20024;-79
2023/02/13 07:24:13;;;;;;;69.45;35.03;;;;;;;11.00;52.69;99170.44;5077735;28;20126;-80
2023/02/13 07:26:39;;;;;;;68.15;33.42;;;;;;;10.72;53.21;99162.56;5076881;28;20028;-79
2023/02/13 07:29:05;;;;;;;71.25;35.38;;;;;;;10.66;53.27;99161.91;5083992;28;20027;-79
2023/02/13 07:31:34;;;;;;;80.05;37.22;;;;;;;10.27;54.42;99161.53;5084862;28;20381;-80
2023/02/13 07:33:59;;;;;;;83.57;39.38;;;;;;;10.57;53.51;99157.78;5073268;28;20024;-79
2023/02/13 07:36:26;;;;;;;85.35;39.85;;;;;;;10.99;52.30;99173.16;5081899;28;20090;-81
2023/02/13 07:38:51;;;;;;;81.38;39.28;;;;;;;10.94;52.27;99197.47;5083780;28;20024;-80
2023/02/13 07:41:17;;;;;;;87.68;40.58;;;;;;;11.82;50.61;99211.00;5082273;28;20399;-81
2023/02/13 07:43:42;;;;;;;81.45;40.33;;;;;;;12.11;49.77;99199.09;5056572;28;20110;-80
2023/02/13 07:46:08;;;;;;;81.53;38.85;;;;;;;12.33;49.06;99202.63;5058965;28;20453;-80
2023/02/13 07:48:34;;;;;;;86.03;41.40;;;;;;;12.62;48.48;99204.03;5078765;28;20020;-80
2023/02/13 07:51:01;;;;;;;89.68;40.83;;;;;;;12.85;47.72;99197.66;5082651;28;20023;-81
2023/02/13 07:53:28;;;;;;;81.40;40.58;;;;;;;13.24;46.85;99195.00;5081634;28;20051;-81
2023/02/13 07:55:53;;;;;;;64.15;31.13;;;;;;;13.37;46.05;99196.19;5082989;28;20460;-80
2023/02/13 07:58:19;;;;;;;64.10;32.72;;;;;;;12.34;47.61;99172.16;5085082;28;20057;-80
2023/02/13 08:00:44;;;;;;;67.45;34.63;;;;;;;13.02;46.87;99192.38;5067340;28;20387;-79
2023/02/13 08:03:10;;;;;;;91.65;45.35;;;;;;;13.00;46.52;99178.16;5075772;28;20111;-80
2023/02/13 08:05:36;;;;;;;116.22;53.47;;;;;;;12.85;47.41;99190.47;5073637;28;20031;-80
2023/02/13 08:08:01;;;;;;;112.78;55.90;;;;;;;11.71;49.63;99186.44;5058144;28;20020;-81
2023/02/13 08:13:12;;;;;;;89.82;46.42;;;;;;;13.13;48.23;99206.25;5084312;28;20038;-80
2023/02/13 08:15:37;;;;;;;86.70;45.55;;;;;;;13.46;47.68;99214.56;5061970;28;20027;-80
2023/02/13 08:18:03;;;;;;;82.90;43.25;;;;;;;13.51;47.28;99205.34;5073361;28;20059;-82
2023/02/13 08:20:28;;;;;;;87.80;46.63;;;;;;;13.64;47.13;99208.31;5078925;28;20463;-80
2023/02/13 08:23:02;;;;;;;99.45;48.22;;;;;;;14.21;45.96;99198.34;5091368;28;20102;-80
2023/02/13 08:25:27;;;;;;;88.13;47.47;;;;;;;14.26;45.24;99190.91;5073762;28;20107;-79
2023/02/13 08:27:53;;;;;;;96.43;48.72;;;;;;;13.87;46.21;99194.63;5083098;28;20142;-79
2023/02/13 08:30:19;;;;;;;92.45;45.30;;;;;;;13.71;46.13;99188.25;5059775;28;20060;-79
2023/02/13 08:32:44;;;;;;;89.43;44.60;;;;;;;12.56;48.26;99184.63;5085309;28;20027;-79
2023/02/13 08:35:09;;;;;;;86.15;45.45;;;;;;;12.95;47.97;99193.63;5069971;28;20058;-80
2023/02/13 08:37:37;;;;;;;98.57;46.38;;;;;;;13.87;46.23;99208.06;5085335;28;20024;-80
2023/02/13 08:40:03;;;;;;;102.55;50.03;;;;;;;13.40;46.39;99187.97;5076600;28;20024;-80
2023/02/13 08:42:29;;;;;;;83.53;43.58;;;;;;;13.82;45.78;99198.47;5078208;28;20024;-80
2023/02/13 08:44:54;;;;;;;90.05;46.00;;;;;;;14.25;45.11;99173.00;5068104;28;20094;-80
2023/02/13 08:47:20;;;;;;;92.70;48.20;;;;;;;14.61;43.82;99166.63;5068103;28;20085;-80
2023/02/13 08:49:45;;;;;;;85.95;45.15;;;;;;;14.93;43.16;99164.94;5067453;28;20070;-79
2023/02/13 08:52:11;;;;;;;91.25;46.33;;;;;;;14.93;43.04;99158.66;5080961;28;20028;-79
2023/02/13 08:54:36;;;;;;;86.68;45.53;;;;;;;15.17;43.15;99166.31;5091703;28;20050;-79
2023/02/13 08:57:02;;;;;;;82.25;46.17;;;;;;;14.41;42.82;99137.19;5084955;28;20052;-80
2023/02/13 08:59:28;;;;;;;82.82;43.50;;;;;;;14.74;43.71;99174.06;5079148;28;20038;-80
2023/02/13 09:01:53;;;;;;;86.45;44.67;;;;;;;13.51;45.19;99135.44;5087967;28;20040;-80
2023/02/13 09:04:19;;;;;;;82.53;42.47;;;;;;;13.18;46.44;99153.16;5087604;28;20071;-80
2023/02/13 09:06:45;;;;;;;88.95;45.30;;;;;;;11.37;50.37;99133.28;5079302;28;20055;-80
2023/02/13 09:09:10;;;;;;;96.00;45.92;;;;;;;13.33;47.44;99192.75;5070713;28;20028;-81
2023/02/13 09:11:36;;;;;;;83.32;42.90;;;;;;;14.35;45.44;99183.28;5114234;28;20019;-81
2023/02/13 09:14:02;;;;;;;83.07;43.15;;;;;;;13.55;46.58;99174.69;5079099;28;20482;-80
2023/02/13 09:16:27;;;;;;;84.38;44.78;;;;;;;15.12;44.26;99189.94;5076386;28;20132;-81
2023/02/13 09:18:53;;;;;;;87.50;42.28;;;;;;;16.32;41.61;99198.47;5102270;28;20487;-80
2023/02/13 09:21:21;;;;;;;78.32;42.40;;;;;;;16.46;40.50;99172.38;5102001;28;20392;-80
2023/02/13 09:23:47;;;;;;;76.28;40.90;;;;;;;16.44;40.00;99157.22;5084169;28;20030;-80
2023/02/13 09:26:14;;;;;;;81.68;41.75;;;;;;;15.77;41.11;99141.41;5075924;28;20027;-79
2023/02/13 09:28:40;;;;;;;73.97;39.10;;;;;;;16.61;39.96;99155.28;5095885;28;20517;-80
2023/02/13 09:31:14;;;;;;;77.38;40.40;;;;;;;16.91;39.24;99146.25;5078547;28;20413;-81
2023/02/13 09:33:40;;;;;;;79.65;39.60;;;;;;;15.94;40.12;99127.81;5058916;28;20473;-80
2023/02/13 09:36:07;;;;;;;80.97;42.70;;;;;;;16.98;38.90;99136.81;5083065;28;20032;-80
2023/02/13 09:38:33;;;;;;;84.60;43.97;;;;;;;17.65;38.05;99139.69;5066558;28;20070;-80
2023/02/13 09:41:03;;;;;;;66.75;35.53;;;;;;;17.74;36.91;99122.84;5090366;28;20019;-80
2023/02/13 09:43:32;;;;;;;77.43;38.03;;;;;;;18.22;36.07;99115.13;5084628;28;20063;-82
2023/02/13 09:46:01;;;;;;;54.42;30.00;;;;;;;19.09;34.49;99126.22;5065137;28;20027;-81
2023/02/13 09:48:32;;;;;;;51.13;27.90;;;;;;;19.11;33.83;99091.69;5085908;28;20028;-80
2023/02/13 09:50:58;;;;;;;57.67;33.22;;;;;;;18.79;34.84;99091.28;5059219;28;20028;-80
2023/02/13 09:53:25;;;;;;;70.88;37.00;;;;;;;18.12;35.86;99057.13;5083905;28;20032;-81
2023/02/13 09:56:04;;;;;;;65.18;33.55;;;;;;;17.78;36.15;99058.56;5063158;28;20024;-81
2023/02/13 09:58:39;;;;;;;54.17;26.95;;;;;;;17.46;35.88;99049.81;5095171;28;20498;-81
2023/02/13 10:01:19;;;;;;;49.45;26.48;;;;;;;17.86;35.55;99043.53;5088874;28;20055;-81
2023/02/13 10:03:52;;;;;;;56.28;26.33;;;;;;;18.18;35.63;99062.13;5066826;28;20027;-81
2023/02/13 10:06:26;;;;;;;54.53;26.65;;;;;;;18.56;34.68;99054.94;5101348;28;20077;-81
2023/02/13 10:09:11;;;;;;;44.47;23.15;;;;;;;19.55;33.43;99066.78;5083525;28;20020;-78
2023/02/13 10:11:36;;;;;;;44.92;23.73;;;;;;;19.80;33.47;99062.13;5101463;28;20455;-82
2023/02/13 10:14:18;;;;;;;52.47;25.05;;;;;;;20.58;32.55;99057.00;5093513;28;20067;-82
2023/02/13 10:16:53;;;;;;;45.10;24.47;;;;;;;20.67;31.16;99034.53;5077663;28;20088;-81
2023/02/13 10:19:37;;;;;;;43.03;23.10;;;;;;;20.28;31.45;99018.63;5087052;28;20575;-81
2023/02/13 10:22:10;;;;;;;38.90;21.70;;;;;;;19.10;32.82;98987.75;5095075;28;20035;-82
2023/02/13 10:24:49;;;;;;;43.25;22.95;;;;;;;19.70;32.35;99009.47;5084595;28;20035;-81
2023/02/13 10:27:19;;;;;;;38.72;21.55;;;;;;;20.81;31.49;99030.72;5094454;28;20066;-82
2023/02/13 10:30:11;;;;;;;38.63;20.20;;;;;;;19.58;32.08;98964.25;5091341;28;20050;-81
2023/02/13 10:33:19;;;;;;;38.22;19.52;;;;;;;18.55;33.46;98952.91;5078081;28;20019;-81
2023/02/13 10:35:57;;;;;;;32.80;19.15;;;;;;;16.90;35.01;98907.50;5101384;28;20036;-81
2023/02/13 10:38:24;;;;;;;35.28;19.10;;;;;;;15.80;36.87;98903.78;5100813;28;20024;-81
2023/02/13 10:41:27;;;;;;;50.97;23.60;;;;;;;17.87;35.01;98974.84;5094451;28;20103;-82
2023/02/13 10:44:38;;;;;;;40.58;20.73;;;;;;;18.59;33.87;98976.13;5078010;28;20059;-81
2023/02/13 10:47:25;;;;;;;35.00;17.75;;;;;;;19.22;33.10;98972.41;5026776;28;20123;-81
2023/02/13 10:50:03;;;;;;;39.30;18.90;;;;;;;20.37;31.13;98988.00;5099002;28;20056;-81
2023/02/13 10:52:32;;;;;;;32.90;18.02;;;;;;;19.97;32.61;98976.63;5090112;28;20050;-82
2023/02/13 10:55:10;;;;;;;30.10;17.90;;;;;;;19.73;31.10;98938.66;5069247;28;20034;-80
2023/02/13 10:57:38;;;;;;;39.75;19.70;;;;;;;20.35;31.19;98968.22;5085032;28;20466;-82
2023/02/13 11:00:33;;;;;;;46.35;19.88;;;;;;;20.32;31.62;98957.59;5079113;28;20165;-81
2023/02/13 11:02:59;;;;;;;49.80;22.35;;;;;;;20.11;32.32;98954.69;5065277;28;20028;-83
2023/02/13 11:05:31;;;;;;;39.60;21.67;;;;;;;21.29;30.36;98972.31;5090827;28;20447;-82
2023/02/13 11:07:56;;;;;;;43.25;23.00;;;;;;;21.62;30.09;98955.03;5082410;28;20015;-81
2023/02/13 11:10:25;;;;;;;51.15;21.77;;;;;;;22.16;29.58;98963.09;5081043;28;20036;-81
2023/02/13 11:12:51;;;;;;;42.03;19.58;;;;;;;21.51;29.32;98915.06;5068984;28;20070;-81
2023/02/13 11:15:24;;;;;;;37.55;18.75;;;;;;;20.69;30.76;98895.69;5094608;28;20027;-81
2023/02/13 11:17:54;;;;;;;33.90;18.48;;;;;;;19.36;31.88;98878.13;5085566;28;20132;-80
2023/02/13 11:20:34;;;;;;;36.30;20.65;;;;;;;20.77;30.53;98932.16;5069102;28;20027;-81
2023/02/13 11:23:17;;;;;;;33.65;17.85;;;;;;;21.22;29.66;98915.81;5085850;28;20027;-80
2023/02/13 11:26:13;;;;;;;39.50;21.92;;;;;;;21.75;29.44;98916.72;5076951;28;20032;-81
2023/02/13 11:29:05;;;;;;;36.35;18.08;;;;;;;20.22;30.86;98869.59;5085726;28;20079;-82
2023/02/13 11:31:36;;;;;;;38.17;19.73;;;;;;;19.93;31.33;98869.22;5094026;28;20066;-81
2023/02/13 11:34:27;;;;;;;31.85;16.75;;;;;;;19.98;30.24;98865.13;5082091;28;20032;-80
2023/02/13 11:37:06;;;;;;;37.88;18.65;;;;;;;21.08;29.97;98900.56;5056821;28;20028;-81
2023/02/13 11:39:32;;;;;;;42.47;21.45;;;;;;;21.30;29.90;98880.63;5099111;28;20027;-81
2023/02/13 11:41:58;;;;;;;34.65;16.48;;;;;;;21.44;29.34;98864.00;5060341;28;20028;-80
2023/02/13 11:44:32;;;;;;;36.35;18.45;;;;;;;21.41;29.24;98850.66;5068355;28;20111;-80
2023/02/13 11:47:04;;;;;;;35.80;17.20;;;;;;;19.76;30.60;98808.06;5083702;28;20025;-80
2023/02/13 11:49:33;;;;;;;29.83;16.25;;;;;;;20.38;29.47;98837.50;5064002;28;20471;-81
2023/02/13 11:52:03;;;;;;;34.70;15.93;;;;;;;20.21;29.92;98836.09;5111466;28;20036;-80
2023/02/13 11:54:39;;;;;;;28.05;15.30;;;;;;;19.79;30.79;98807.81;5085199;28;20031;-81
2023/02/13 11:57:22;;;;;;;28.98;16.20;;;;;;;19.66;30.80;98811.59;5076385;28;20225;-80
2023/02/13 11:59:50;;;;;;;29.88;14.52;;;;;;;19.27;30.56;98788.41;5093201;28;20439;-80
2023/02/13 12:02:22;;;;;;;26.80;14.95;;;;;;;19.83;30.14;98822.88;5076087;28;20024;-80
2023/02/13 12:05:13;;;;;;;28.58;15.98;;;;;;;20.46;29.43;98829.59;5102233;28;20430;-80